sensor_id;sensor_type;location;lat;lon;timestamp;P1;durP1;ratioP1;P2;durP2;ratioP2
1308;SDS011;647;48.840;9.314;2023-04-25T00:00:21;59.33;;;4.30;;
1308;SDS011;647;48.840;9.314;2023-04-25T00:02:48;58.30;;;3.53;;
1308;SDS011;647;48.840;9.314;2023-04-25T00:05:15;58.50;;;3.80;;
1308;SDS011;647;48.840;9.314;2023-04-25T00:07:43;59.77;;;4.13;;
1308;SDS011;647;48.840;9.314;2023-04-25T00:10:11;59.47;;;3.90;;
1308;SDS011;647;48.840;9.314;2023-04-25T00:12:38;60.10;;;3.90;;
1308;SDS011;647;48.840;9.314;2023-04-25T00:15:05;59.67;;;3.50;;
1308;SDS011;647;48.840;9.314;2023-04-25T00:17:34;58.20;;;3.80;;
1308;SDS011;647;48.840;9.314;2023-04-25T00:20:03;59.57;;;3.70;;
1308;SDS011;647;48.840;9.314;2023-04-25T00:22:32;60.20;;;3.80;;
1308;SDS011;647;48.840;9.314;2023-04-25T00:25:02;59.57;;;4.13;;
1308;SDS011;647;48.840;9.314;2023-04-25T00:27:29;59.23;;;4.00;;
1308;SDS011;647;48.840;9.314;2023-04-25T00:29:56;58.37;;;3.77;;
1308;SDS011;647;48.840;9.314;2023-04-25T00:32:23;59.07;;;3.90;;
1308;SDS011;647;48.840;9.314;2023-04-25T00:34:51;58.87;;;3.83;;
1308;SDS011;647;48.840;9.314;2023-04-25T00:37:20;59.33;;;3.73;;
1308;SDS011;647;48.840;9.314;2023-04-25T00:39:47;58.40;;;3.80;;
1308;SDS011;647;48.840;9.314;2023-04-25T00:42:15;59.30;;;3.80;;
1308;SDS011;647;48.840;9.314;2023-04-25T00:44:42;58.60;;;3.67;;
1308;SDS011;647;48.840;9.314;2023-04-25T00:47:10;59.80;;;3.97;;
1308;SDS011;647;48.840;9.314;2023-04-25T00:49:37;58.30;;;3.50;;
1308;SDS011;647;48.840;9.314;2023-04-25T00:52:06;59.10;;;3.80;;
1308;SDS011;647;48.840;9.314;2023-04-25T00:54:33;60.27;;;4.03;;
1308;SDS011;647;48.840;9.314;2023-04-25T00:57:00;58.60;;;4.13;;
1308;SDS011;647;48.840;9.314;2023-04-25T00:59:28;57.97;;;3.70;;
1308;SDS011;647;48.840;9.314;2023-04-25T01:01:55;59.10;;;4.50;;
1308;SDS011;647;48.840;9.314;2023-04-25T01:04:23;59.30;;;3.77;;
1308;SDS011;647;48.840;9.314;2023-04-25T01:06:50;58.57;;;3.90;;
1308;SDS011;647;48.840;9.314;2023-04-25T01:09:19;58.87;;;4.50;;
1308;SDS011;647;48.840;9.314;2023-04-25T01:11:47;58.27;;;3.50;;
1308;SDS011;647;48.840;9.314;2023-04-25T01:14:14;58.60;;;3.87;;
1308;SDS011;647;48.840;9.314;2023-04-25T01:16:41;59.07;;;3.93;;
1308;SDS011;647;48.840;9.314;2023-04-25T01:19:10;59.07;;;4.33;;
1308;SDS011;647;48.840;9.314;2023-04-25T01:21:38;58.70;;;4.03;;
1308;SDS011;647;48.840;9.314;2023-04-25T01:24:06;57.97;;;3.80;;
1308;SDS011;647;48.840;9.314;2023-04-25T01:26:33;58.70;;;3.73;;
1308;SDS011;647;48.840;9.314;2023-04-25T01:29:00;59.43;;;4.07;;
1308;SDS011;647;48.840;9.314;2023-04-25T01:31:27;59.30;;;4.47;;
1308;SDS011;647;48.840;9.314;2023-04-25T01:33:55;59.70;;;3.90;;
1308;SDS011;647;48.840;9.314;2023-04-25T01:36:22;58.77;;;3.80;;
1308;SDS011;647;48.840;9.314;2023-04-25T01:38:50;58.60;;;4.20;;
1308;SDS011;647;48.840;9.314;2023-04-25T01:41:17;58.70;;;4.37;;
1308;SDS011;647;48.840;9.314;2023-04-25T01:43:45;58.10;;;3.37;;
1308;SDS011;647;48.840;9.314;2023-04-25T01:46:12;58.60;;;4.07;;
1308;SDS011;647;48.840;9.314;2023-04-25T01:48:39;59.50;;;3.83;;
1308;SDS011;647;48.840;9.314;2023-04-25T01:51:06;58.30;;;4.10;;
1308;SDS011;647;48.840;9.314;2023-04-25T01:53:33;58.37;;;3.90;;
1308;SDS011;647;48.840;9.314;2023-04-25T01:56:02;58.30;;;3.77;;
1308;SDS011;647;48.840;9.314;2023-04-25T01:58:29;60.90;;;4.80;;
1308;SDS011;647;48.840;9.314;2023-04-25T02:00:56;58.77;;;4.20;;
1308;SDS011;647;48.840;9.314;2023-04-25T02:03:23;62.57;;;4.13;;
1308;SDS011;647;48.840;9.314;2023-04-25T02:05:50;59.33;;;4.50;;
1308;SDS011;647;48.840;9.314;2023-04-25T02:08:17;60.37;;;3.80;;
1308;SDS011;647;48.840;9.314;2023-04-25T02:10:45;58.87;;;3.50;;
1308;SDS011;647;48.840;9.314;2023-04-25T02:13:13;59.00;;;3.50;;
1308;SDS011;647;48.840;9.314;2023-04-25T02:15:40;60.03;;;4.27;;
1308;SDS011;647;48.840;9.314;2023-04-25T02:18:07;58.27;;;3.80;;
1308;SDS011;647;48.840;9.314;2023-04-25T02:20:35;59.23;;;4.10;;
1308;SDS011;647;48.840;9.314;2023-04-25T02:23:02;59.30;;;4.70;;
1308;SDS011;647;48.840;9.314;2023-04-25T02:25:30;59.13;;;4.10;;
1308;SDS011;647;48.840;9.314;2023-04-25T02:27:57;58.30;;;3.87;;
1308;SDS011;647;48.840;9.314;2023-04-25T02:30:25;60.20;;;4.27;;
1308;SDS011;647;48.840;9.314;2023-04-25T02:32:52;59.10;;;4.23;;
1308;SDS011;647;48.840;9.314;2023-04-25T02:35:20;61.77;;;4.90;;
1308;SDS011;647;48.840;9.314;2023-04-25T02:37:47;59.47;;;3.70;;
1308;SDS011;647;48.840;9.314;2023-04-25T02:40:14;60.47;;;5.10;;
1308;SDS011;647;48.840;9.314;2023-04-25T02:42:41;61.97;;;3.50;;
1308;SDS011;647;48.840;9.314;2023-04-25T02:45:10;60.10;;;4.47;;
1308;SDS011;647;48.840;9.314;2023-04-25T02:47:39;63.23;;;4.30;;
1308;SDS011;647;48.840;9.314;2023-04-25T02:50:06;60.03;;;4.50;;
1308;SDS011;647;48.840;9.314;2023-04-25T02:52:34;62.23;;;4.43;;
1308;SDS011;647;48.840;9.314;2023-04-25T02:55:01;59.30;;;4.67;;
1308;SDS011;647;48.840;9.314;2023-04-25T02:57:28;60.97;;;4.47;;
1308;SDS011;647;48.840;9.314;2023-04-25T02:59:55;58.63;;;4.30;;
1308;SDS011;647;48.840;9.314;2023-04-25T03:02:22;60.87;;;4.20;;
1308;SDS011;647;48.840;9.314;2023-04-25T03:04:50;59.90;;;4.80;;
1308;SDS011;647;48.840;9.314;2023-04-25T03:07:18;59.67;;;4.07;;
1308;SDS011;647;48.840;9.314;2023-04-25T03:09:45;60.07;;;4.83;;
1308;SDS011;647;48.840;9.314;2023-04-25T03:12:13;58.80;;;4.30;;
1308;SDS011;647;48.840;9.314;2023-04-25T03:14:40;59.80;;;4.33;;
1308;SDS011;647;48.840;9.314;2023-04-25T03:17:07;60.53;;;4.73;;
1308;SDS011;647;48.840;9.314;2023-04-25T03:19:34;59.27;;;4.30;;
1308;SDS011;647;48.840;9.314;2023-04-25T03:22:02;58.40;;;4.07;;
1308;SDS011;647;48.840;9.314;2023-04-25T03:24:29;59.87;;;4.60;;
1308;SDS011;647;48.840;9.314;2023-04-25T03:26:57;59.40;;;4.70;;
1308;SDS011;647;48.840;9.314;2023-04-25T03:29:24;58.80;;;4.50;;
1308;SDS011;647;48.840;9.314;2023-04-25T03:31:52;59.80;;;4.97;;
1308;SDS011;647;48.840;9.314;2023-04-25T03:34:19;58.33;;;4.37;;
1308;SDS011;647;48.840;9.314;2023-04-25T03:36:47;63.67;;;5.10;;
1308;SDS011;647;48.840;9.314;2023-04-25T03:39:15;62.80;;;4.73;;
1308;SDS011;647;48.840;9.314;2023-04-25T03:41:42;59.70;;;5.10;;
1308;SDS011;647;48.840;9.314;2023-04-25T03:44:09;62.97;;;5.33;;
1308;SDS011;647;48.840;9.314;2023-04-25T03:46:37;60.00;;;5.27;;
1308;SDS011;647;48.840;9.314;2023-04-25T03:49:04;59.57;;;4.80;;
1308;SDS011;647;48.840;9.314;2023-04-25T03:51:31;60.40;;;5.50;;
1308;SDS011;647;48.840;9.314;2023-04-25T03:53:58;60.60;;;5.30;;
1308;SDS011;647;48.840;9.314;2023-04-25T03:56:27;60.10;;;5.20;;
1308;SDS011;647;48.840;9.314;2023-04-25T03:58:54;59.27;;;4.70;;
1308;SDS011;647;48.840;9.314;2023-04-25T04:01:21;59.57;;;5.00;;
1308;SDS011;647;48.840;9.314;2023-04-25T04:03:48;60.30;;;5.00;;
1308;SDS011;647;48.840;9.314;2023-04-25T04:06:16;58.97;;;4.73;;
1308;SDS011;647;48.840;9.314;2023-04-25T04:08:43;59.43;;;5.00;;
1308;SDS011;647;48.840;9.314;2023-04-25T04:11:11;59.87;;;4.67;;
1308;SDS011;647;48.840;9.314;2023-04-25T04:13:39;61.00;;;4.80;;
1308;SDS011;647;48.840;9.314;2023-04-25T04:16:06;60.37;;;5.30;;
1308;SDS011;647;48.840;9.314;2023-04-25T04:18:34;61.43;;;4.70;;
1308;SDS011;647;48.840;9.314;2023-04-25T04:21:01;59.20;;;5.03;;
1308;SDS011;647;48.840;9.314;2023-04-25T04:23:28;61.40;;;5.10;;
1308;SDS011;647;48.840;9.314;2023-04-25T04:25:55;61.27;;;5.43;;
1308;SDS011;647;48.840;9.314;2023-04-25T04:28:22;60.37;;;4.80;;
1308;SDS011;647;48.840;9.314;2023-04-25T04:30:51;58.90;;;4.73;;
1308;SDS011;647;48.840;9.314;2023-04-25T04:33:18;60.63;;;5.50;;
1308;SDS011;647;48.840;9.314;2023-04-25T04:35:46;60.57;;;6.40;;
1308;SDS011;647;48.840;9.314;2023-04-25T04:38:13;60.00;;;5.50;;
1308;SDS011;647;48.840;9.314;2023-04-25T04:40:41;62.47;;;5.43;;
1308;SDS011;647;48.840;9.314;2023-04-25T04:43:08;59.67;;;5.07;;
1308;SDS011;647;48.840;9.314;2023-04-25T04:45:36;62.30;;;5.67;;
1308;SDS011;647;48.840;9.314;2023-04-25T04:48:05;60.53;;;5.30;;
1308;SDS011;647;48.840;9.314;2023-04-25T04:50:32;62.93;;;5.50;;
1308;SDS011;647;48.840;9.314;2023-04-25T04:53:00;60.70;;;5.90;;
1308;SDS011;647;48.840;9.314;2023-04-25T04:55:27;61.93;;;6.40;;
1308;SDS011;647;48.840;9.314;2023-04-25T04:57:54;60.67;;;5.60;;
1308;SDS011;647;48.840;9.314;2023-04-25T05:00:21;60.37;;;5.10;;
1308;SDS011;647;48.840;9.314;2023-04-25T05:02:49;60.10;;;5.70;;
1308;SDS011;647;48.840;9.314;2023-04-25T05:05:17;61.27;;;5.90;;
1308;SDS011;647;48.840;9.314;2023-04-25T05:07:44;59.40;;;5.00;;
1308;SDS011;647;48.840;9.314;2023-04-25T05:10:11;59.67;;;5.50;;
1308;SDS011;647;48.840;9.314;2023-04-25T05:12:38;59.83;;;5.23;;
1308;SDS011;647;48.840;9.314;2023-04-25T05:15:06;61.50;;;5.77;;
1308;SDS011;647;48.840;9.314;2023-04-25T05:17:33;61.67;;;5.33;;
1308;SDS011;647;48.840;9.314;2023-04-25T05:20:00;59.53;;;5.27;;
1308;SDS011;647;48.840;9.314;2023-04-25T05:22:29;60.20;;;5.30;;
1308;SDS011;647;48.840;9.314;2023-04-25T05:24:56;61.20;;;5.37;;
1308;SDS011;647;48.840;9.314;2023-04-25T05:27:23;59.77;;;5.13;;
1308;SDS011;647;48.840;9.314;2023-04-25T05:29:50;59.00;;;4.83;;
1308;SDS011;647;48.840;9.314;2023-04-25T05:32:17;59.97;;;4.97;;
1308;SDS011;647;48.840;9.314;2023-04-25T05:34:44;60.17;;;5.27;;
1308;SDS011;647;48.840;9.314;2023-04-25T05:37:12;60.13;;;5.40;;
1308;SDS011;647;48.840;9.314;2023-04-25T05:39:40;62.97;;;6.17;;
1308;SDS011;647;48.840;9.314;2023-04-25T05:42:07;60.47;;;5.70;;
1308;SDS011;647;48.840;9.314;2023-04-25T05:44:35;60.90;;;5.67;;
1308;SDS011;647;48.840;9.314;2023-04-25T05:47:02;72.20;;;5.63;;
1308;SDS011;647;48.840;9.314;2023-04-25T05:49:30;60.87;;;5.60;;
1308;SDS011;647;48.840;9.314;2023-04-25T05:51:57;59.80;;;5.90;;
1308;SDS011;647;48.840;9.314;2023-04-25T05:54:24;60.40;;;4.90;;
1308;SDS011;647;48.840;9.314;2023-04-25T05:56:52;60.70;;;5.57;;
1308;SDS011;647;48.840;9.314;2023-04-25T05:59:19;59.77;;;5.23;;
1308;SDS011;647;48.840;9.314;2023-04-25T06:01:46;60.37;;;5.60;;
1308;SDS011;647;48.840;9.314;2023-04-25T06:04:13;59.70;;;5.40;;
1308;SDS011;647;48.840;9.314;2023-04-25T06:06:41;60.47;;;6.13;;
1308;SDS011;647;48.840;9.314;2023-04-25T06:09:08;61.57;;;6.40;;
1308;SDS011;647;48.840;9.314;2023-04-25T06:11:35;60.17;;;5.90;;
1308;SDS011;647;48.840;9.314;2023-04-25T06:14:03;60.77;;;5.97;;
1308;SDS011;647;48.840;9.314;2023-04-25T06:16:30;62.90;;;6.30;;
1308;SDS011;647;48.840;9.314;2023-04-25T06:18:57;59.77;;;5.30;;
1308;SDS011;647;48.840;9.314;2023-04-25T06:21:24;61.00;;;7.00;;
1308;SDS011;647;48.840;9.314;2023-04-25T06:23:52;60.20;;;5.87;;
1308;SDS011;647;48.840;9.314;2023-04-25T06:26:19;60.87;;;6.07;;
1308;SDS011;647;48.840;9.314;2023-04-25T06:28:46;59.97;;;6.30;;
1308;SDS011;647;48.840;9.314;2023-04-25T06:31:15;60.57;;;5.90;;
1308;SDS011;647;48.840;9.314;2023-04-25T06:33:42;60.37;;;5.63;;
1308;SDS011;647;48.840;9.314;2023-04-25T06:36:09;61.20;;;5.90;;
1308;SDS011;647;48.840;9.314;2023-04-25T06:38:36;59.40;;;5.23;;
1308;SDS011;647;48.840;9.314;2023-04-25T06:41:03;60.10;;;5.33;;
1308;SDS011;647;48.840;9.314;2023-04-25T06:43:30;60.50;;;5.70;;
1308;SDS011;647;48.840;9.314;2023-04-25T06:45:58;63.73;;;5.70;;
1308;SDS011;647;48.840;9.314;2023-04-25T06:48:27;61.67;;;5.87;;
1308;SDS011;647;48.840;9.314;2023-04-25T06:50:54;60.37;;;6.10;;
1308;SDS011;647;48.840;9.314;2023-04-25T06:53:21;60.50;;;5.37;;
1308;SDS011;647;48.840;9.314;2023-04-25T06:55:48;60.17;;;5.37;;
1308;SDS011;647;48.840;9.314;2023-04-25T06:58:16;60.43;;;5.70;;
1308;SDS011;647;48.840;9.314;2023-04-25T07:00:43;60.70;;;5.73;;
1308;SDS011;647;48.840;9.314;2023-04-25T07:03:11;60.47;;;5.70;;
1308;SDS011;647;48.840;9.314;2023-04-25T07:05:39;59.87;;;5.10;;
1308;SDS011;647;48.840;9.314;2023-04-25T07:08:06;59.87;;;5.23;;
1308;SDS011;647;48.840;9.314;2023-04-25T07:10:33;60.57;;;5.17;;
1308;SDS011;647;48.840;9.314;2023-04-25T07:13:01;59.47;;;5.60;;
1308;SDS011;647;48.840;9.314;2023-04-25T07:15:28;60.00;;;5.57;;
1308;SDS011;647;48.840;9.314;2023-04-25T07:17:55;60.70;;;5.63;;
1308;SDS011;647;48.840;9.314;2023-04-25T07:20:22;59.97;;;5.13;;
1308;SDS011;647;48.840;9.314;2023-04-25T07:22:50;58.90;;;4.80;;
1308;SDS011;647;48.840;9.314;2023-04-25T07:25:18;59.47;;;5.27;;
1308;SDS011;647;48.840;9.314;2023-04-25T07:27:45;59.77;;;5.77;;
1308;SDS011;647;48.840;9.314;2023-04-25T07:30:12;59.57;;;5.20;;
1308;SDS011;647;48.840;9.314;2023-04-25T07:32:39;60.90;;;5.53;;
1308;SDS011;647;48.840;9.314;2023-04-25T07:35:07;60.77;;;5.20;;
1308;SDS011;647;48.840;9.314;2023-04-25T07:37:34;60.17;;;4.87;;
1308;SDS011;647;48.840;9.314;2023-04-25T07:40:03;60.40;;;5.17;;
1308;SDS011;647;48.840;9.314;2023-04-25T07:42:30;61.00;;;5.10;;
1308;SDS011;647;48.840;9.314;2023-04-25T07:44:57;63.20;;;5.27;;
1308;SDS011;647;48.840;9.314;2023-04-25T07:47:25;59.70;;;5.40;;
1308;SDS011;647;48.840;9.314;2023-04-25T07:49:52;59.60;;;5.50;;
1308;SDS011;647;48.840;9.314;2023-04-25T07:52:19;62.60;;;6.50;;
1308;SDS011;647;48.840;9.314;2023-04-25T07:54:46;59.67;;;5.47;;
1308;SDS011;647;48.840;9.314;2023-04-25T07:57:15;60.70;;;5.87;;
1308;SDS011;647;48.840;9.314;2023-04-25T07:59:43;59.67;;;5.13;;
1308;SDS011;647;48.840;9.314;2023-04-25T08:02:10;61.10;;;5.83;;
1308;SDS011;647;48.840;9.314;2023-04-25T08:04:37;63.00;;;5.80;;
1308;SDS011;647;48.840;9.314;2023-04-25T08:07:04;59.57;;;5.87;;
1308;SDS011;647;48.840;9.314;2023-04-25T08:09:32;60.07;;;5.37;;
1308;SDS011;647;48.840;9.314;2023-04-25T08:12:00;60.57;;;6.30;;
1308;SDS011;647;48.840;9.314;2023-04-25T08:14:29;60.87;;;6.40;;
1308;SDS011;647;48.840;9.314;2023-04-25T08:17:00;60.47;;;6.80;;
1308;SDS011;647;48.840;9.314;2023-04-25T08:19:28;61.83;;;7.37;;
1308;SDS011;647;48.840;9.314;2023-04-25T08:21:55;63.07;;;6.97;;
1308;SDS011;647;48.840;9.314;2023-04-25T08:24:22;63.47;;;8.60;;
1308;SDS011;647;48.840;9.314;2023-04-25T08:26:49;63.17;;;8.00;;
1308;SDS011;647;48.840;9.314;2023-04-25T08:29:16;61.30;;;7.43;;
1308;SDS011;647;48.840;9.314;2023-04-25T08:31:45;63.70;;;8.47;;
1308;SDS011;647;48.840;9.314;2023-04-25T08:34:13;62.27;;;8.13;;
1308;SDS011;647;48.840;9.314;2023-04-25T08:36:40;62.00;;;7.30;;
1308;SDS011;647;48.840;9.314;2023-04-25T08:39:07;63.17;;;8.00;;
1308;SDS011;647;48.840;9.314;2023-04-25T08:41:35;62.23;;;7.97;;
1308;SDS011;647;48.840;9.314;2023-04-25T08:44:03;62.77;;;8.33;;
1308;SDS011;647;48.840;9.314;2023-04-25T08:46:30;62.27;;;8.10;;
1308;SDS011;647;48.840;9.314;2023-04-25T08:49:00;66.07;;;8.30;;
1308;SDS011;647;48.840;9.314;2023-04-25T08:51:27;61.77;;;7.63;;
1308;SDS011;647;48.840;9.314;2023-04-25T08:53:59;63.87;;;8.27;;
1308;SDS011;647;48.840;9.314;2023-04-25T08:56:28;63.67;;;9.27;;
1308;SDS011;647;48.840;9.314;2023-04-25T08:58:56;63.30;;;8.67;;
1308;SDS011;647;48.840;9.314;2023-04-25T09:01:23;62.17;;;8.17;;
1308;SDS011;647;48.840;9.314;2023-04-25T09:03:50;64.30;;;8.80;;
1308;SDS011;647;48.840;9.314;2023-04-25T09:06:19;61.90;;;8.40;;
1308;SDS011;647;48.840;9.314;2023-04-25T09:08:46;63.50;;;8.67;;
1308;SDS011;647;48.840;9.314;2023-04-25T09:11:13;65.90;;;9.30;;
1308;SDS011;647;48.840;9.314;2023-04-25T09:13:40;65.50;;;10.40;;
1308;SDS011;647;48.840;9.314;2023-04-25T09:16:07;64.63;;;9.40;;
1308;SDS011;647;48.840;9.314;2023-04-25T09:18:35;66.80;;;9.20;;
1308;SDS011;647;48.840;9.314;2023-04-25T09:21:04;62.60;;;9.00;;
1308;SDS011;647;48.840;9.314;2023-04-25T09:23:39;63.30;;;8.80;;
1308;SDS011;647;48.840;9.314;2023-04-25T09:26:07;65.70;;;8.10;;
1308;SDS011;647;48.840;9.314;2023-04-25T09:28:34;64.20;;;8.67;;
1308;SDS011;647;48.840;9.314;2023-04-25T09:31:02;66.07;;;9.23;;
1308;SDS011;647;48.840;9.314;2023-04-25T09:33:30;62.97;;;8.50;;
1308;SDS011;647;48.840;9.314;2023-04-25T09:36:02;62.97;;;8.43;;
1308;SDS011;647;48.840;9.314;2023-04-25T09:38:30;64.07;;;7.77;;
1308;SDS011;647;48.840;9.314;2023-04-25T09:40:59;60.87;;;7.30;;
1308;SDS011;647;48.840;9.314;2023-04-25T09:43:26;62.20;;;7.60;;
1308;SDS011;647;48.840;9.314;2023-04-25T09:45:54;62.00;;;7.07;;
1308;SDS011;647;48.840;9.314;2023-04-25T09:48:25;60.40;;;6.50;;
1308;SDS011;647;48.840;9.314;2023-04-25T09:51:05;61.37;;;5.77;;
1308;SDS011;647;48.840;9.314;2023-04-25T09:53:32;61.30;;;6.80;;
1308;SDS011;647;48.840;9.314;2023-04-25T09:56:01;61.97;;;7.20;;
1308;SDS011;647;48.840;9.314;2023-04-25T09:58:30;62.43;;;7.90;;
1308;SDS011;647;48.840;9.314;2023-04-25T10:00:58;61.67;;;7.23;;
1308;SDS011;647;48.840;9.314;2023-04-25T10:03:26;62.80;;;8.10;;
1308;SDS011;647;48.840;9.314;2023-04-25T10:05:53;63.37;;;8.60;;
1308;SDS011;647;48.840;9.314;2023-04-25T10:08:21;64.30;;;8.70;;
1308;SDS011;647;48.840;9.314;2023-04-25T10:10:49;66.13;;;9.00;;
1308;SDS011;647;48.840;9.314;2023-04-25T10:13:17;63.87;;;8.23;;
1308;SDS011;647;48.840;9.314;2023-04-25T10:15:45;65.17;;;9.17;;
1308;SDS011;647;48.840;9.314;2023-04-25T10:18:13;62.13;;;8.50;;
1308;SDS011;647;48.840;9.314;2023-04-25T10:20:43;60.90;;;6.47;;
1308;SDS011;647;48.840;9.314;2023-04-25T10:23:11;61.67;;;6.50;;
1308;SDS011;647;48.840;9.314;2023-04-25T10:25:40;60.80;;;5.83;;
1308;SDS011;647;48.840;9.314;2023-04-25T10:28:07;62.67;;;6.00;;
1308;SDS011;647;48.840;9.314;2023-04-25T10:30:35;62.00;;;6.53;;
1308;SDS011;647;48.840;9.314;2023-04-25T10:33:03;60.97;;;6.70;;
1308;SDS011;647;48.840;9.314;2023-04-25T10:35:42;61.50;;;6.40;;
1308;SDS011;647;48.840;9.314;2023-04-25T10:38:13;64.10;;;7.07;;
1308;SDS011;647;48.840;9.314;2023-04-25T10:40:41;60.97;;;6.63;;
1308;SDS011;647;48.840;9.314;2023-04-25T10:45:55;62.83;;;7.50;;
1308;SDS011;647;48.840;9.314;2023-04-25T10:48:24;62.95;;;7.45;;
1308;SDS011;647;48.840;9.314;2023-04-25T10:50:59;62.10;;;7.23;;
1308;SDS011;647;48.840;9.314;2023-04-25T10:53:33;62.63;;;7.72;;
1308;SDS011;647;48.840;9.314;2023-04-25T10:56:00;63.00;;;7.77;;
1308;SDS011;647;48.840;9.314;2023-04-25T10:58:27;62.10;;;7.47;;
1308;SDS011;647;48.840;9.314;2023-04-25T11:00:56;61.57;;;6.97;;
1308;SDS011;647;48.840;9.314;2023-04-25T11:03:23;63.43;;;7.90;;
1308;SDS011;647;48.840;9.314;2023-04-25T11:05:51;63.07;;;7.47;;
1308;SDS011;647;48.840;9.314;2023-04-25T11:08:21;61.30;;;7.23;;
1308;SDS011;647;48.840;9.314;2023-04-25T11:10:52;61.43;;;6.67;;
1308;SDS011;647;48.840;9.314;2023-04-25T11:13:20;62.30;;;7.97;;
1308;SDS011;647;48.840;9.314;2023-04-25T11:15:50;61.90;;;7.30;;
1308;SDS011;647;48.840;9.314;2023-04-25T11:18:19;62.07;;;7.50;;
1308;SDS011;647;48.840;9.314;2023-04-25T11:20:47;61.60;;;6.53;;
1308;SDS011;647;48.840;9.314;2023-04-25T11:23:15;61.47;;;6.67;;
1308;SDS011;647;48.840;9.314;2023-04-25T11:25:42;62.33;;;6.80;;
1308;SDS011;647;48.840;9.314;2023-04-25T11:28:09;61.20;;;6.80;;
1308;SDS011;647;48.840;9.314;2023-04-25T11:30:36;61.30;;;6.90;;
1308;SDS011;647;48.840;9.314;2023-04-25T11:33:03;61.43;;;6.60;;
1308;SDS011;647;48.840;9.314;2023-04-25T11:35:32;61.17;;;6.93;;
1308;SDS011;647;48.840;9.314;2023-04-25T11:37:59;60.40;;;6.43;;
1308;SDS011;647;48.840;9.314;2023-04-25T11:40:26;60.10;;;6.20;;
1308;SDS011;647;48.840;9.314;2023-04-25T11:42:53;60.20;;;6.17;;
1308;SDS011;647;48.840;9.314;2023-04-25T11:45:20;59.97;;;5.43;;
1308;SDS011;647;48.840;9.314;2023-04-25T11:47:49;61.70;;;6.80;;
1308;SDS011;647;48.840;9.314;2023-04-25T11:50:16;60.50;;;4.97;;
1308;SDS011;647;48.840;9.314;2023-04-25T11:52:45;60.90;;;6.57;;
1308;SDS011;647;48.840;9.314;2023-04-25T11:55:13;60.30;;;5.63;;
1308;SDS011;647;48.840;9.314;2023-04-25T11:57:41;60.30;;;5.70;;
1308;SDS011;647;48.840;9.314;2023-04-25T12:00:09;59.80;;;5.70;;
1308;SDS011;647;48.840;9.314;2023-04-25T12:02:40;59.20;;;5.10;;
1308;SDS011;647;48.840;9.314;2023-04-25T12:05:07;60.30;;;4.40;;
1308;SDS011;647;48.840;9.314;2023-04-25T12:07:35;59.97;;;4.53;;
1308;SDS011;647;48.840;9.314;2023-04-25T12:10:07;59.60;;;5.07;;
1308;SDS011;647;48.840;9.314;2023-04-25T12:12:35;62.03;;;6.07;;
1308;SDS011;647;48.840;9.314;2023-04-25T12:15:09;59.20;;;5.10;;
1308;SDS011;647;48.840;9.314;2023-04-25T12:17:36;59.43;;;5.40;;
1308;SDS011;647;48.840;9.314;2023-04-25T12:20:07;60.63;;;6.27;;
1308;SDS011;647;48.840;9.314;2023-04-25T12:22:34;60.27;;;6.20;;
1308;SDS011;647;48.840;9.314;2023-04-25T12:25:02;61.03;;;5.27;;
1308;SDS011;647;48.840;9.314;2023-04-25T12:27:31;60.23;;;5.80;;
1308;SDS011;647;48.840;9.314;2023-04-25T12:29:58;59.63;;;5.27;;
1308;SDS011;647;48.840;9.314;2023-04-25T12:32:26;60.80;;;6.40;;
1308;SDS011;647;48.840;9.314;2023-04-25T12:34:53;60.63;;;6.00;;
1308;SDS011;647;48.840;9.314;2023-04-25T12:37:21;59.37;;;5.27;;
1308;SDS011;647;48.840;9.314;2023-04-25T12:39:48;61.40;;;5.97;;
1308;SDS011;647;48.840;9.314;2023-04-25T12:42:15;59.87;;;5.83;;
1308;SDS011;647;48.840;9.314;2023-04-25T12:44:44;62.07;;;6.50;;
1308;SDS011;647;48.840;9.314;2023-04-25T12:47:11;60.60;;;6.70;;
1308;SDS011;647;48.840;9.314;2023-04-25T12:49:38;61.30;;;6.70;;
1308;SDS011;647;48.840;9.314;2023-04-25T12:52:05;62.23;;;7.07;;
1308;SDS011;647;48.840;9.314;2023-04-25T12:54:32;62.00;;;7.10;;
1308;SDS011;647;48.840;9.314;2023-04-25T12:57:00;62.70;;;6.43;;
1308;SDS011;647;48.840;9.314;2023-04-25T12:59:27;61.87;;;6.63;;
1308;SDS011;647;48.840;9.314;2023-04-25T13:01:56;64.47;;;8.20;;
1308;SDS011;647;48.840;9.314;2023-04-25T13:04:23;62.67;;;6.77;;
1308;SDS011;647;48.840;9.314;2023-04-25T13:06:50;59.97;;;6.17;;
1308;SDS011;647;48.840;9.314;2023-04-25T13:09:17;60.03;;;6.10;;
1308;SDS011;647;48.840;9.314;2023-04-25T13:11:45;60.30;;;6.20;;
1308;SDS011;647;48.840;9.314;2023-04-25T13:14:12;60.97;;;6.57;;
1308;SDS011;647;48.840;9.314;2023-04-25T13:16:40;61.73;;;6.90;;
1308;SDS011;647;48.840;9.314;2023-04-25T13:19:08;61.13;;;6.73;;
1308;SDS011;647;48.840;9.314;2023-04-25T13:21:36;63.47;;;6.97;;
1308;SDS011;647;48.840;9.314;2023-04-25T13:24:03;62.20;;;6.87;;
1308;SDS011;647;48.840;9.314;2023-04-25T13:26:31;61.40;;;6.80;;
1308;SDS011;647;48.840;9.314;2023-04-25T13:28:58;61.67;;;5.97;;
1308;SDS011;647;48.840;9.314;2023-04-25T13:31:27;61.67;;;6.90;;
1308;SDS011;647;48.840;9.314;2023-04-25T13:33:55;60.80;;;6.17;;
1308;SDS011;647;48.840;9.314;2023-04-25T13:36:23;62.00;;;7.10;;
1308;SDS011;647;48.840;9.314;2023-04-25T13:38:50;61.30;;;7.40;;
1308;SDS011;647;48.840;9.314;2023-04-25T13:41:18;63.20;;;7.20;;
1308;SDS011;647;48.840;9.314;2023-04-25T13:43:45;67.20;;;7.60;;
1308;SDS011;647;48.840;9.314;2023-04-25T13:46:13;62.27;;;6.93;;
1308;SDS011;647;48.840;9.314;2023-04-25T13:48:41;62.30;;;6.60;;
1308;SDS011;647;48.840;9.314;2023-04-25T13:51:12;63.30;;;6.90;;
1308;SDS011;647;48.840;9.314;2023-04-25T13:53:40;63.77;;;7.40;;
1308;SDS011;647;48.840;9.314;2023-04-25T13:56:07;66.10;;;8.30;;
1308;SDS011;647;48.840;9.314;2023-04-25T13:58:35;64.20;;;8.63;;
1308;SDS011;647;48.840;9.314;2023-04-25T14:01:03;63.50;;;8.63;;
1308;SDS011;647;48.840;9.314;2023-04-25T14:03:30;62.77;;;8.40;;
1308;SDS011;647;48.840;9.314;2023-04-25T14:05:57;62.70;;;8.93;;
1308;SDS011;647;48.840;9.314;2023-04-25T14:08:24;63.20;;;8.47;;
1308;SDS011;647;48.840;9.314;2023-04-25T14:10:52;65.53;;;8.80;;
1308;SDS011;647;48.840;9.314;2023-04-25T14:13:20;62.33;;;8.10;;
1308;SDS011;647;48.840;9.314;2023-04-25T14:15:48;63.80;;;9.03;;
1308;SDS011;647;48.840;9.314;2023-04-25T14:18:16;62.30;;;7.90;;
1308;SDS011;647;48.840;9.314;2023-04-25T14:20:43;63.53;;;8.33;;
1308;SDS011;647;48.840;9.314;2023-04-25T14:23:10;64.60;;;8.63;;
1308;SDS011;647;48.840;9.314;2023-04-25T14:25:46;63.00;;;9.10;;
1308;SDS011;647;48.840;9.314;2023-04-25T14:28:13;62.33;;;8.50;;
1308;SDS011;647;48.840;9.314;2023-04-25T14:30:40;62.07;;;7.83;;
1308;SDS011;647;48.840;9.314;2023-04-25T14:33:08;63.90;;;8.03;;
1308;SDS011;647;48.840;9.314;2023-04-25T14:35:35;67.33;;;8.07;;
1308;SDS011;647;48.840;9.314;2023-04-25T14:38:02;61.77;;;7.53;;
1308;SDS011;647;48.840;9.314;2023-04-25T14:40:30;62.00;;;7.40;;
1308;SDS011;647;48.840;9.314;2023-04-25T14:42:58;62.10;;;7.03;;
1308;SDS011;647;48.840;9.314;2023-04-25T14:45:26;61.17;;;7.10;;
1308;SDS011;647;48.840;9.314;2023-04-25T14:47:53;60.67;;;7.43;;
1308;SDS011;647;48.840;9.314;2023-04-25T14:50:20;62.20;;;7.60;;
1308;SDS011;647;48.840;9.314;2023-04-25T14:52:48;65.30;;;7.50;;
1308;SDS011;647;48.840;9.314;2023-04-25T14:55:15;63.20;;;7.53;;
1308;SDS011;647;48.840;9.314;2023-04-25T14:57:42;61.37;;;7.13;;
1308;SDS011;647;48.840;9.314;2023-04-25T15:00:11;64.13;;;7.90;;
1308;SDS011;647;48.840;9.314;2023-04-25T15:02:41;63.00;;;8.07;;
1308;SDS011;647;48.840;9.314;2023-04-25T15:05:08;62.77;;;8.20;;
1308;SDS011;647;48.840;9.314;2023-04-25T15:07:35;63.53;;;7.67;;
1308;SDS011;647;48.840;9.314;2023-04-25T15:10:04;62.20;;;7.40;;
1308;SDS011;647;48.840;9.314;2023-04-25T15:12:36;63.63;;;7.60;;
1308;SDS011;647;48.840;9.314;2023-04-25T15:15:03;63.90;;;7.50;;
1308;SDS011;647;48.840;9.314;2023-04-25T15:17:32;61.40;;;6.40;;
1308;SDS011;647;48.840;9.314;2023-04-25T15:20:00;61.10;;;7.10;;